Stroh, IN (46789)

2:00 AM EDT on March 31, 2015 (GMT -0400)
Tri-State Steuben County | | Change Station
CLOSE
Current Station
Airport
Location: Angola Tri-State Steuben Coun,
Elevation: 994 ft
Nearby Weather Stations

Elev 994 ft 41.64 °N, 85.09 °W | Updated -886 second ago

Overcast
Overcast
43 °F
Feels Like 38 °F
N
8
Wind Variable Wind from SSE

Today
High -- | Low -- °F
--% Chance of Precip.
Yesterday
High -- | Low -- °F
Precip. -- in
7:25 AM 8:04 PM
Waxing Gibbous, 84% visible
Pressure 29.83 in
Visibility 10.0 miles
Clouds Overcast 10000 ft
Windchill 38 °F
Dew Point 41 °F
Humidity 93%
Rainfall 0.00 in
Snow Depth Not available.
UV 0 out of 12
Pollen 7.50 out of 12
Air Quality Not available.
Flu Activity Not available.
METAR KANQ 310615Z AUTO 15007KT 10SM OVC100 06/05 A2983 RMK

More Conditions Fewer Conditions

Pressure 29.83 in
Visibility 10.0 miles
Clouds Overcast 10000 ft
Windchill 38 °F
Dew Point 41 °F
Humidity 93%
Rainfall 0.00 in
Snow Depth Not available.
UV 0 out of 12
Pollen 7.50 out of 12
Air Quality Not available.
Flu Activity Not available.
METAR KANQ 310615Z AUTO 15007KT 10SM OVC100 06/05 A2983 RMK

More Conditions Fewer Conditions

10-Day Weather Forecast

Almanac

Astronomy

Mar. 31, 2015 Rise Set
Actual Time
Civil Twilight
Nautical Twilight
Astronomical Twilight
Moon
Length of Visible Light
Length of Day
Tomorrow will be .
, % of the Moon is Illuminated

Today's Extremes

State Highs State Lows

Community

WunderPhotos

Upload Photos

1,809,724 photos uploaded!

WunderBlogs® & News

Nearby

Air Quality

  Air Quality AQ Index Pollutant
Not available.

Snow Depth

Station Depth Elevation

Earthquake Activity

City Distance Mag. Time & Date
Minimum magnitude displayed is 2.5.

Coastal Water Temperatures

Place Temperature

Stations

Nearby Weather Stations

Station Location Temp. Windchill Dew Point Humidity Wind Precip. Elev Updated Type